This is the latest recevied weather packets stored in our database for station/object OH2MUI. If no packets are shown the sender has not sent any weather packets the latest 10 day(s).
| Time | Temp. | Humidity | Pressure | Rain* | Wind** | Luminosity | Snow |
|---|---|---|---|---|---|---|---|
| 1778181539 | 9.44° C | 44% | 1019.5 hPa | 0 mm | - | - | - |
| 1778180369 | 10.56° C | 44% | 1019.3 hPa | 0 mm | - | - | - |
| 1778179284 | 10.56° C | 43% | 1019.2 hPa | 0 mm | - | - | - |
| 1778178294 | 11.67° C | - | - | 0 mm | - | - | - |
| 1778178289 | 11.67° C | 40% | 1018.9 hPa | 0 mm | - | - | - |
| 1778177249 | 12.78° C | 37% | 1018.3 hPa | 0 mm | - | - | - |
| 1778176170 | 13.89° C | 36% | 1018 hPa | 0 mm | - | - | - |
| 1778175209 | 14.44° C | 36% | 1017.8 hPa | 0 mm | - | - | - |
| 1778174034 | 15° C | 33% | 1017.4 hPa | 0 mm | - | - | - |
| 1778172924 | 15° C | 33% | 1017.3 hPa | 0 mm | - | - | - |
| 1778171864 | 14.44° C | 32% | 1017.2 hPa | 0 mm | - | - | - |
| 1778170848 | 14.44° C | 33% | 1017.1 hPa | 0 mm | - | - | - |
| 1778169889 | 14.44° C | 33% | 1017 hPa | 0 mm | - | - | - |
| 1778168924 | 13.89° C | 31% | 1016.9 hPa | 0 mm | - | - | - |
| 1778167849 | 13.89° C | 29% | 1016.9 hPa | 0 mm | - | - | - |
| 1778166769 | 13.89° C | 33% | 1016.9 hPa | 0 mm | - | - | - |
| 1778165749 | 13.89° C | 32% | 1016.9 hPa | 0 mm | - | - | - |
| 1778164739 | 13.89° C | - | - | 0 mm | - | - | - |
| 1778164734 | 13.89° C | 33% | 1016.8 hPa | 0 mm | - | - | - |
| 1778163744 | 13.89° C | 34% | 1016.8 hPa | 0 mm | - | - | - |
| 1778163734 | 13.89° C | 34% | 1016.8 hPa | 0 mm | - | - | - |
| 1778162759 | 13.89° C | 31% | 1016.6 hPa | 0 mm | - | - | - |
| 1778161654 | 13.89° C | 30% | 1016.7 hPa | 0 mm | - | - | - |
| 1778160524 | 13.89° C | 34% | 1016.6 hPa | 0 mm | - | - | - |
| 1778159459 | 14.44° C | 32% | 1016.7 hPa | 0 mm | - | - | - |
* Rain latest hour (hover to see other rain measurements)
** Current wind speed in m/s (hover to see current wind gust speed)